Plessisville, Canada
Current Conditions -  °F | °C
As of 9:00 PM on Monday 24 Nov 2014 (Local Time) from CYQB Reporting Station
Rain Showers Rain Showers  
Wind Chill: 50°   Ceiling: 6500
Heat Index: 50°   Visibility: 12mi
Dew Point: 50°   Wind: 16mph
Humidity: 100%   Direction: 250°WSW
Pressure: 29.32"   Gusts: 32mph
Location:  46.22°N, 71.77°W
Report Text: CYQB 250200Z 25014G28KT 12SM -SHRA FEW037 BKN065 BKN090 10/10 A2932 RMK SC1SC5AC1 TCU ASOCTD PRESRR SLP931 DENSITY ALT 400FT
Loading
Personal Weather Stations






























Interactive Weather Map New forecast layout! Learn more

10-Day Weather Forecast

Advertisements
Track Severe Weather on mobile